Terminal Aerodrome Forecast
Issued by NWS

Home | Current Version | Previous Version | Text Only | Print | Product List | Glossary On
Versions: 1 2 3 4 5 6 7 8 9 10 11 12 13 14 15 16 17 18
000
FTUS43 KMQT 181100
TAFIWD
TAF
KIWD 181124Z 1812/1912 09005KT P6SM OVC012
     FM181600 15006KT P6SM SCT040
     FM190100 17007KT P6SM SCT200
     FM190800 19012G20KT P6SM BKN200
      AMD LTD TO CLD VIS AND WIND=

USA.gov is the U.S. government's official web portal to all federal, state and local government web resources and services.